sensor_id;sensor_type;location;lat;lon;timestamp;P1;durP1;ratioP1;P2;durP2;ratioP2
47778;SDS011;33538;48.432;11.350;2023-02-15T00:01:04;12.65;;;6.03;;
47778;SDS011;33538;48.432;11.350;2023-02-15T00:03:32;15.30;;;6.72;;
47778;SDS011;33538;48.432;11.350;2023-02-15T00:05:58;12.98;;;6.88;;
47778;SDS011;33538;48.432;11.350;2023-02-15T00:08:26;16.02;;;7.50;;
47778;SDS011;33538;48.432;11.350;2023-02-15T00:10:52;15.07;;;6.68;;
47778;SDS011;33538;48.432;11.350;2023-02-15T00:13:19;14.45;;;6.70;;
47778;SDS011;33538;48.432;11.350;2023-02-15T00:15:47;14.15;;;6.47;;
47778;SDS011;33538;48.432;11.350;2023-02-15T00:18:14;15.15;;;6.25;;
47778;SDS011;33538;48.432;11.350;2023-02-15T00:20:41;13.25;;;6.00;;
47778;SDS011;33538;48.432;11.350;2023-02-15T00:23:07;17.35;;;7.10;;
47778;SDS011;33538;48.432;11.350;2023-02-15T00:25:34;13.60;;;6.18;;
47778;SDS011;33538;48.432;11.350;2023-02-15T00:28:01;12.27;;;5.95;;
47778;SDS011;33538;48.432;11.350;2023-02-15T00:30:28;12.23;;;6.22;;
47778;SDS011;33538;48.432;11.350;2023-02-15T00:32:56;11.65;;;5.90;;
47778;SDS011;33538;48.432;11.350;2023-02-15T00:35:23;13.50;;;6.22;;
47778;SDS011;33538;48.432;11.350;2023-02-15T00:37:49;14.73;;;7.40;;
47778;SDS011;33538;48.432;11.350;2023-02-15T00:40:16;12.57;;;6.00;;
47778;SDS011;33538;48.432;11.350;2023-02-15T00:42:43;14.57;;;6.60;;
47778;SDS011;33538;48.432;11.350;2023-02-15T00:45:10;14.55;;;6.50;;
47778;SDS011;33538;48.432;11.350;2023-02-15T00:47:36;15.27;;;7.40;;
47778;SDS011;33538;48.432;11.350;2023-02-15T00:50:05;13.02;;;7.07;;
47778;SDS011;33538;48.432;11.350;2023-02-15T00:52:32;11.65;;;5.93;;
47778;SDS011;33538;48.432;11.350;2023-02-15T00:54:59;14.60;;;6.82;;
47778;SDS011;33538;48.432;11.350;2023-02-15T00:57:26;14.43;;;6.65;;
47778;SDS011;33538;48.432;11.350;2023-02-15T00:59:53;13.77;;;6.82;;
47778;SDS011;33538;48.432;11.350;2023-02-15T01:02:19;17.77;;;8.13;;
47778;SDS011;33538;48.432;11.350;2023-02-15T01:04:46;19.05;;;7.07;;
47778;SDS011;33538;48.432;11.350;2023-02-15T01:07:14;15.43;;;7.15;;
47778;SDS011;33538;48.432;11.350;2023-02-15T01:09:41;16.92;;;6.95;;
47778;SDS011;33538;48.432;11.350;2023-02-15T01:12:08;15.73;;;7.00;;
47778;SDS011;33538;48.432;11.350;2023-02-15T01:14:34;12.95;;;6.13;;
47778;SDS011;33538;48.432;11.350;2023-02-15T01:17:01;12.50;;;6.15;;
47778;SDS011;33538;48.432;11.350;2023-02-15T01:19:28;15.13;;;6.80;;
47778;SDS011;33538;48.432;11.350;2023-02-15T01:21:55;11.85;;;6.32;;
47778;SDS011;33538;48.432;11.350;2023-02-15T01:24:23;13.15;;;6.15;;
47778;SDS011;33538;48.432;11.350;2023-02-15T01:26:49;13.85;;;7.20;;
47778;SDS011;33538;48.432;11.350;2023-02-15T01:29:16;15.93;;;7.13;;
47778;SDS011;33538;48.432;11.350;2023-02-15T01:31:43;19.45;;;8.13;;
47778;SDS011;33538;48.432;11.350;2023-02-15T01:34:10;14.80;;;7.00;;
47778;SDS011;33538;48.432;11.350;2023-02-15T01:36:36;10.77;;;6.03;;
47778;SDS011;33538;48.432;11.350;2023-02-15T01:39:03;14.43;;;6.28;;
47778;SDS011;33538;48.432;11.350;2023-02-15T01:41:31;15.18;;;7.22;;
47778;SDS011;33538;48.432;11.350;2023-02-15T01:43:58;14.25;;;6.82;;
47778;SDS011;33538;48.432;11.350;2023-02-15T01:46:27;15.20;;;6.72;;
47778;SDS011;33538;48.432;11.350;2023-02-15T01:49:00;17.55;;;7.25;;
47778;SDS011;33538;48.432;11.350;2023-02-15T01:51:31;13.68;;;6.63;;
47778;SDS011;33538;48.432;11.350;2023-02-15T01:54:01;14.55;;;7.35;;
47778;SDS011;33538;48.432;11.350;2023-02-15T01:56:33;16.80;;;6.60;;
47778;SDS011;33538;48.432;11.350;2023-02-15T01:59:03;15.48;;;7.28;;
47778;SDS011;33538;48.432;11.350;2023-02-15T02:01:32;14.10;;;6.95;;
47778;SDS011;33538;48.432;11.350;2023-02-15T02:04:00;17.08;;;7.53;;
47778;SDS011;33538;48.432;11.350;2023-02-15T02:06:33;11.80;;;6.25;;
47778;SDS011;33538;48.432;11.350;2023-02-15T02:09:02;14.52;;;7.72;;
47778;SDS011;33538;48.432;11.350;2023-02-15T02:11:29;13.80;;;6.40;;
47778;SDS011;33538;48.432;11.350;2023-02-15T02:13:57;14.07;;;6.93;;
47778;SDS011;33538;48.432;11.350;2023-02-15T02:16:25;13.98;;;7.18;;
47778;SDS011;33538;48.432;11.350;2023-02-15T02:18:59;15.38;;;6.95;;
47778;SDS011;33538;48.432;11.350;2023-02-15T02:21:43;13.93;;;6.45;;
47778;SDS011;33538;48.432;11.350;2023-02-15T02:27:28;14.23;;;7.32;;
47778;SDS011;33538;48.432;11.350;2023-02-15T02:30:15;15.88;;;7.30;;
47778;SDS011;33538;48.432;11.350;2023-02-15T02:33:10;19.98;;;7.72;;
47778;SDS011;33538;48.432;11.350;2023-02-15T02:36:02;17.75;;;6.78;;
47778;SDS011;33538;48.432;11.350;2023-02-15T02:38:37;17.58;;;7.47;;
47778;SDS011;33538;48.432;11.350;2023-02-15T02:41:16;14.27;;;7.55;;
47778;SDS011;33538;48.432;11.350;2023-02-15T02:43:52;14.85;;;6.50;;
47778;SDS011;33538;48.432;11.350;2023-02-15T02:46:26;17.42;;;7.90;;
47778;SDS011;33538;48.432;11.350;2023-02-15T02:48:58;14.43;;;7.30;;
47778;SDS011;33538;48.432;11.350;2023-02-15T02:51:26;15.63;;;7.85;;
47778;SDS011;33538;48.432;11.350;2023-02-15T02:53:53;18.52;;;7.55;;
47778;SDS011;33538;48.432;11.350;2023-02-15T02:56:23;16.90;;;6.65;;
47778;SDS011;33538;48.432;11.350;2023-02-15T02:58:57;12.20;;;6.30;;
47778;SDS011;33538;48.432;11.350;2023-02-15T03:01:29;13.48;;;6.40;;
47778;SDS011;33538;48.432;11.350;2023-02-15T03:04:02;12.70;;;6.13;;
47778;SDS011;33538;48.432;11.350;2023-02-15T03:06:35;14.80;;;6.53;;
47778;SDS011;33538;48.432;11.350;2023-02-15T03:09:08;13.10;;;6.38;;
47778;SDS011;33538;48.432;11.350;2023-02-15T03:11:37;11.50;;;5.72;;
47778;SDS011;33538;48.432;11.350;2023-02-15T03:14:04;13.50;;;6.65;;
47778;SDS011;33538;48.432;11.350;2023-02-15T03:16:31;12.13;;;5.88;;
47778;SDS011;33538;48.432;11.350;2023-02-15T03:18:59;14.00;;;6.55;;
47778;SDS011;33538;48.432;11.350;2023-02-15T03:21:33;14.10;;;6.85;;
47778;SDS011;33538;48.432;11.350;2023-02-15T03:24:05;15.65;;;6.72;;
47778;SDS011;33538;48.432;11.350;2023-02-15T03:26:35;15.15;;;7.05;;
47778;SDS011;33538;48.432;11.350;2023-02-15T03:29:05;15.75;;;7.50;;
47778;SDS011;33538;48.432;11.350;2023-02-15T03:31:35;15.73;;;6.35;;
47778;SDS011;33538;48.432;11.350;2023-02-15T03:34:07;14.52;;;6.75;;
47778;SDS011;33538;48.432;11.350;2023-02-15T03:36:39;11.93;;;6.43;;
47778;SDS011;33538;48.432;11.350;2023-02-15T03:39:13;17.08;;;7.35;;
47778;SDS011;33538;48.432;11.350;2023-02-15T03:41:48;14.02;;;6.50;;
47778;SDS011;33538;48.432;11.350;2023-02-15T03:44:24;11.02;;;5.68;;
47778;SDS011;33538;48.432;11.350;2023-02-15T03:46:55;11.20;;;6.15;;
47778;SDS011;33538;48.432;11.350;2023-02-15T03:49:29;15.00;;;6.13;;
47778;SDS011;33538;48.432;11.350;2023-02-15T03:52:05;14.25;;;6.40;;
47778;SDS011;33538;48.432;11.350;2023-02-15T03:54:34;14.75;;;6.60;;
47778;SDS011;33538;48.432;11.350;2023-02-15T03:57:02;17.52;;;7.45;;
47778;SDS011;33538;48.432;11.350;2023-02-15T03:59:30;14.50;;;6.80;;
47778;SDS011;33538;48.432;11.350;2023-02-15T04:01:59;16.40;;;7.32;;
47778;SDS011;33538;48.432;11.350;2023-02-15T04:04:37;16.48;;;7.07;;
47778;SDS011;33538;48.432;11.350;2023-02-15T04:07:06;15.90;;;7.30;;
47778;SDS011;33538;48.432;11.350;2023-02-15T04:09:34;18.10;;;7.53;;
47778;SDS011;33538;48.432;11.350;2023-02-15T04:12:00;12.02;;;6.10;;
47778;SDS011;33538;48.432;11.350;2023-02-15T04:14:27;19.38;;;7.85;;
47778;SDS011;33538;48.432;11.350;2023-02-15T04:16:54;16.05;;;6.88;;
47778;SDS011;33538;48.432;11.350;2023-02-15T04:19:21;15.15;;;6.43;;
47778;SDS011;33538;48.432;11.350;2023-02-15T04:21:49;13.20;;;6.57;;
47778;SDS011;33538;48.432;11.350;2023-02-15T04:24:16;10.80;;;5.30;;
47778;SDS011;33538;48.432;11.350;2023-02-15T04:26:43;14.07;;;6.47;;
47778;SDS011;33538;48.432;11.350;2023-02-15T04:29:10;11.88;;;5.45;;
47778;SDS011;33538;48.432;11.350;2023-02-15T04:31:37;15.90;;;6.25;;
47778;SDS011;33538;48.432;11.350;2023-02-15T04:34:04;12.85;;;5.25;;
47778;SDS011;33538;48.432;11.350;2023-02-15T04:36:31;10.82;;;5.03;;
47778;SDS011;33538;48.432;11.350;2023-02-15T04:38:59;13.00;;;6.20;;
47778;SDS011;33538;48.432;11.350;2023-02-15T04:41:25;13.52;;;6.10;;
47778;SDS011;33538;48.432;11.350;2023-02-15T04:43:52;15.60;;;6.68;;
47778;SDS011;33538;48.432;11.350;2023-02-15T04:46:19;15.95;;;6.72;;
47778;SDS011;33538;48.432;11.350;2023-02-15T04:48:46;13.60;;;5.82;;
47778;SDS011;33538;48.432;11.350;2023-02-15T04:51:13;14.25;;;6.35;;
47778;SDS011;33538;48.432;11.350;2023-02-15T04:53:40;14.23;;;6.45;;
47778;SDS011;33538;48.432;11.350;2023-02-15T04:56:08;17.85;;;7.35;;
47778;SDS011;33538;48.432;11.350;2023-02-15T04:58:35;17.45;;;7.45;;
47778;SDS011;33538;48.432;11.350;2023-02-15T05:01:02;11.15;;;5.28;;
47778;SDS011;33538;48.432;11.350;2023-02-15T05:03:29;13.98;;;6.78;;
47778;SDS011;33538;48.432;11.350;2023-02-15T05:05:55;14.18;;;5.70;;
47778;SDS011;33538;48.432;11.350;2023-02-15T05:08:22;12.07;;;5.68;;
47778;SDS011;33538;48.432;11.350;2023-02-15T05:10:49;13.13;;;6.03;;
47778;SDS011;33538;48.432;11.350;2023-02-15T05:13:17;14.30;;;6.20;;
47778;SDS011;33538;48.432;11.350;2023-02-15T05:15:46;15.13;;;6.82;;
47778;SDS011;33538;48.432;11.350;2023-02-15T05:18:14;16.02;;;7.22;;
47778;SDS011;33538;48.432;11.350;2023-02-15T05:20:41;15.05;;;6.40;;
47778;SDS011;33538;48.432;11.350;2023-02-15T05:23:08;11.25;;;5.50;;
47778;SDS011;33538;48.432;11.350;2023-02-15T05:25:35;13.50;;;6.50;;
47778;SDS011;33538;48.432;11.350;2023-02-15T05:28:02;9.70;;;5.88;;
47778;SDS011;33538;48.432;11.350;2023-02-15T05:30:31;11.80;;;5.25;;
47778;SDS011;33538;48.432;11.350;2023-02-15T05:32:59;12.93;;;6.00;;
47778;SDS011;33538;48.432;11.350;2023-02-15T05:35:25;12.23;;;6.47;;
47778;SDS011;33538;48.432;11.350;2023-02-15T05:37:52;14.13;;;6.72;;
47778;SDS011;33538;48.432;11.350;2023-02-15T05:40:19;11.55;;;5.80;;
47778;SDS011;33538;48.432;11.350;2023-02-15T05:42:46;12.98;;;6.03;;
47778;SDS011;33538;48.432;11.350;2023-02-15T05:45:12;14.15;;;6.13;;
47778;SDS011;33538;48.432;11.350;2023-02-15T05:47:40;15.70;;;6.32;;
47778;SDS011;33538;48.432;11.350;2023-02-15T05:50:08;13.90;;;5.85;;
47778;SDS011;33538;48.432;11.350;2023-02-15T05:52:35;12.52;;;5.97;;
47778;SDS011;33538;48.432;11.350;2023-02-15T05:55:02;13.73;;;5.70;;
47778;SDS011;33538;48.432;11.350;2023-02-15T05:57:29;13.63;;;6.10;;
47778;SDS011;33538;48.432;11.350;2023-02-15T05:59:55;14.07;;;6.30;;
47778;SDS011;33538;48.432;11.350;2023-02-15T06:02:22;12.02;;;5.65;;
47778;SDS011;33538;48.432;11.350;2023-02-15T06:04:50;11.10;;;5.30;;
47778;SDS011;33538;48.432;11.350;2023-02-15T06:07:17;10.75;;;5.53;;
47778;SDS011;33538;48.432;11.350;2023-02-15T06:09:44;14.73;;;6.53;;
47778;SDS011;33538;48.432;11.350;2023-02-15T06:12:11;11.43;;;5.38;;
47778;SDS011;33538;48.432;11.350;2023-02-15T06:14:37;10.95;;;5.82;;
47778;SDS011;33538;48.432;11.350;2023-02-15T06:17:04;11.07;;;5.57;;
47778;SDS011;33538;48.432;11.350;2023-02-15T06:19:31;12.77;;;5.53;;
47778;SDS011;33538;48.432;11.350;2023-02-15T06:21:59;12.00;;;5.10;;
47778;SDS011;33538;48.432;11.350;2023-02-15T06:24:26;16.77;;;5.95;;
47778;SDS011;33538;48.432;11.350;2023-02-15T06:26:52;13.13;;;5.82;;
47778;SDS011;33538;48.432;11.350;2023-02-15T06:29:19;8.55;;;4.60;;
47778;SDS011;33538;48.432;11.350;2023-02-15T06:31:46;12.77;;;6.00;;
47778;SDS011;33538;48.432;11.350;2023-02-15T06:34:13;12.10;;;5.88;;
47778;SDS011;33538;48.432;11.350;2023-02-15T06:36:40;12.15;;;5.70;;
47778;SDS011;33538;48.432;11.350;2023-02-15T06:39:08;13.82;;;5.80;;
47778;SDS011;33538;48.432;11.350;2023-02-15T06:41:35;10.85;;;5.20;;
47778;SDS011;33538;48.432;11.350;2023-02-15T06:44:02;15.82;;;5.57;;
47778;SDS011;33538;48.432;11.350;2023-02-15T06:46:29;8.98;;;5.28;;
47778;SDS011;33538;48.432;11.350;2023-02-15T06:48:55;12.93;;;5.65;;
47778;SDS011;33538;48.432;11.350;2023-02-15T06:51:22;11.93;;;5.88;;
47778;SDS011;33538;48.432;11.350;2023-02-15T06:53:49;10.43;;;4.90;;
47778;SDS011;33538;48.432;11.350;2023-02-15T06:56:17;10.23;;;5.38;;
47778;SDS011;33538;48.432;11.350;2023-02-15T06:58:44;9.77;;;4.82;;
47778;SDS011;33538;48.432;11.350;2023-02-15T07:01:11;11.73;;;5.25;;
47778;SDS011;33538;48.432;11.350;2023-02-15T07:03:38;11.55;;;5.15;;
47778;SDS011;33538;48.432;11.350;2023-02-15T07:06:05;9.88;;;4.70;;
47778;SDS011;33538;48.432;11.350;2023-02-15T07:08:31;14.23;;;5.13;;
47778;SDS011;33538;48.432;11.350;2023-02-15T07:10:58;12.40;;;5.25;;
47778;SDS011;33538;48.432;11.350;2023-02-15T07:13:26;12.18;;;5.78;;
47778;SDS011;33538;48.432;11.350;2023-02-15T07:15:53;11.50;;;5.35;;
47778;SDS011;33538;48.432;11.350;2023-02-15T07:18:20;11.93;;;6.00;;
47778;SDS011;33538;48.432;11.350;2023-02-15T07:20:46;13.75;;;6.30;;
47778;SDS011;33538;48.432;11.350;2023-02-15T07:23:13;11.63;;;5.90;;
47778;SDS011;33538;48.432;11.350;2023-02-15T07:25:40;11.82;;;5.60;;
47778;SDS011;33538;48.432;11.350;2023-02-15T07:28:07;13.88;;;5.13;;
47778;SDS011;33538;48.432;11.350;2023-02-15T07:30:35;11.15;;;5.20;;
47778;SDS011;33538;48.432;11.350;2023-02-15T07:33:02;15.20;;;6.78;;
47778;SDS011;33538;48.432;11.350;2023-02-15T07:35:31;12.60;;;5.35;;
47778;SDS011;33538;48.432;11.350;2023-02-15T07:37:57;11.00;;;5.78;;
47778;SDS011;33538;48.432;11.350;2023-02-15T07:40:24;17.73;;;6.85;;
47778;SDS011;33538;48.432;11.350;2023-02-15T07:42:51;9.98;;;5.40;;
47778;SDS011;33538;48.432;11.350;2023-02-15T07:45:19;12.10;;;6.05;;
47778;SDS011;33538;48.432;11.350;2023-02-15T07:47:48;14.70;;;6.60;;
47778;SDS011;33538;48.432;11.350;2023-02-15T07:50:14;11.70;;;5.97;;
47778;SDS011;33538;48.432;11.350;2023-02-15T07:52:41;13.45;;;6.35;;
47778;SDS011;33538;48.432;11.350;2023-02-15T07:55:08;10.68;;;5.68;;
47778;SDS011;33538;48.432;11.350;2023-02-15T07:57:35;13.93;;;5.53;;
47778;SDS011;33538;48.432;11.350;2023-02-15T08:00:02;10.32;;;5.50;;
47778;SDS011;33538;48.432;11.350;2023-02-15T08:02:29;11.50;;;5.05;;
47778;SDS011;33538;48.432;11.350;2023-02-15T08:04:57;9.23;;;5.45;;
47778;SDS011;33538;48.432;11.350;2023-02-15T08:07:24;11.13;;;5.50;;
47778;SDS011;33538;48.432;11.350;2023-02-15T08:09:51;12.48;;;5.55;;
47778;SDS011;33538;48.432;11.350;2023-02-15T08:12:18;10.30;;;5.55;;
47778;SDS011;33538;48.432;11.350;2023-02-15T08:14:44;14.75;;;6.47;;
47778;SDS011;33538;48.432;11.350;2023-02-15T08:17:11;12.45;;;5.97;;
47778;SDS011;33538;48.432;11.350;2023-02-15T08:19:38;11.40;;;5.78;;
47778;SDS011;33538;48.432;11.350;2023-02-15T08:22:06;11.45;;;5.32;;
47778;SDS011;33538;48.432;11.350;2023-02-15T08:24:34;13.40;;;6.22;;
47778;SDS011;33538;48.432;11.350;2023-02-15T08:27:03;12.52;;;5.82;;
47778;SDS011;33538;48.432;11.350;2023-02-15T08:29:32;13.48;;;6.38;;
47778;SDS011;33538;48.432;11.350;2023-02-15T08:32:00;15.90;;;6.45;;
47778;SDS011;33538;48.432;11.350;2023-02-15T08:34:30;11.88;;;6.20;;
47778;SDS011;33538;48.432;11.350;2023-02-15T08:36:58;13.63;;;5.70;;
47778;SDS011;33538;48.432;11.350;2023-02-15T08:39:26;11.40;;;5.72;;
47778;SDS011;33538;48.432;11.350;2023-02-15T08:41:54;11.35;;;5.78;;
47778;SDS011;33538;48.432;11.350;2023-02-15T08:44:21;13.60;;;6.03;;
47778;SDS011;33538;48.432;11.350;2023-02-15T08:46:48;10.73;;;4.97;;
47778;SDS011;33538;48.432;11.350;2023-02-15T08:49:16;13.48;;;6.38;;
47778;SDS011;33538;48.432;11.350;2023-02-15T08:51:45;11.82;;;5.95;;
47778;SDS011;33538;48.432;11.350;2023-02-15T08:54:13;15.43;;;6.60;;
47778;SDS011;33538;48.432;11.350;2023-02-15T08:56:43;12.55;;;5.95;;
47778;SDS011;33538;48.432;11.350;2023-02-15T08:59:12;14.93;;;6.60;;
47778;SDS011;33538;48.432;11.350;2023-02-15T09:01:40;12.32;;;5.60;;
47778;SDS011;33538;48.432;11.350;2023-02-15T09:04:07;12.43;;;5.75;;
47778;SDS011;33538;48.432;11.350;2023-02-15T09:06:35;12.55;;;5.90;;
47778;SDS011;33538;48.432;11.350;2023-02-15T09:09:02;14.57;;;6.35;;
47778;SDS011;33538;48.432;11.350;2023-02-15T09:11:30;14.65;;;6.35;;
47778;SDS011;33538;48.432;11.350;2023-02-15T09:14:02;11.90;;;5.88;;
47778;SDS011;33538;48.432;11.350;2023-02-15T09:16:31;11.07;;;5.47;;
47778;SDS011;33538;48.432;11.350;2023-02-15T09:18:59;17.38;;;7.43;;
47778;SDS011;33538;48.432;11.350;2023-02-15T09:21:26;15.20;;;7.32;;
47778;SDS011;33538;48.432;11.350;2023-02-15T09:23:55;12.68;;;7.00;;
47778;SDS011;33538;48.432;11.350;2023-02-15T09:26:23;16.65;;;6.93;;
47778;SDS011;33538;48.432;11.350;2023-02-15T09:28:51;19.95;;;7.60;;
47778;SDS011;33538;48.432;11.350;2023-02-15T09:31:21;15.77;;;6.93;;
47778;SDS011;33538;48.432;11.350;2023-02-15T09:33:50;15.20;;;6.53;;
47778;SDS011;33538;48.432;11.350;2023-02-15T09:36:18;14.82;;;6.72;;
47778;SDS011;33538;48.432;11.350;2023-02-15T09:38:47;16.27;;;7.07;;
47778;SDS011;33538;48.432;11.350;2023-02-15T09:41:21;17.55;;;7.55;;
47778;SDS011;33538;48.432;11.350;2023-02-15T09:44:01;19.55;;;6.72;;
47778;SDS011;33538;48.432;11.350;2023-02-15T09:46:42;17.05;;;7.47;;
47778;SDS011;33538;48.432;11.350;2023-02-15T09:49:26;15.85;;;7.22;;
47778;SDS011;33538;48.432;11.350;2023-02-15T09:52:07;16.33;;;7.22;;
47778;SDS011;33538;48.432;11.350;2023-02-15T09:54:46;14.02;;;6.95;;
47778;SDS011;33538;48.432;11.350;2023-02-15T09:57:25;19.17;;;7.57;;
47778;SDS011;33538;48.432;11.350;2023-02-15T10:00:00;12.57;;;6.97;;
47778;SDS011;33538;48.432;11.350;2023-02-15T10:02:38;22.38;;;8.10;;
47778;SDS011;33538;48.432;11.350;2023-02-15T10:05:21;16.52;;;7.57;;
47778;SDS011;33538;48.432;11.350;2023-02-15T10:08:01;12.57;;;6.55;;
47778;SDS011;33538;48.432;11.350;2023-02-15T10:10:48;16.27;;;7.90;;
47778;SDS011;33538;48.432;11.350;2023-02-15T10:13:25;14.48;;;6.93;;
47778;SDS011;33538;48.432;11.350;2023-02-15T10:16:01;16.40;;;7.80;;
47778;SDS011;33538;48.432;11.350;2023-02-15T10:18:45;15.32;;;7.20;;
47778;SDS011;33538;48.432;11.350;2023-02-15T10:21:21;15.77;;;7.13;;
47778;SDS011;33538;48.432;11.350;2023-02-15T10:24:02;14.68;;;7.57;;
47778;SDS011;33538;48.432;11.350;2023-02-15T10:26:43;19.52;;;8.07;;
47778;SDS011;33538;48.432;11.350;2023-02-15T10:29:12;17.80;;;7.15;;
47778;SDS011;33538;48.432;11.350;2023-02-15T10:31:47;14.75;;;7.15;;
47778;SDS011;33538;48.432;11.350;2023-02-15T10:34:17;17.17;;;7.72;;
47778;SDS011;33538;48.432;11.350;2023-02-15T10:39:48;17.13;;;8.10;;
47778;SDS011;33538;48.432;11.350;2023-02-15T10:42:23;16.20;;;7.55;;
47778;SDS011;33538;48.432;11.350;2023-02-15T10:45:03;16.13;;;7.82;;
47778;SDS011;33538;48.432;11.350;2023-02-15T10:47:50;19.88;;;8.27;;
47778;SDS011;33538;48.432;11.350;2023-02-15T10:50:39;15.52;;;7.47;;
47778;SDS011;33538;48.432;11.350;2023-02-15T10:53:19;17.33;;;7.57;;
47778;SDS011;33538;48.432;11.350;2023-02-15T10:56:19;17.48;;;9.43;;
47778;SDS011;33538;48.432;11.350;2023-02-15T10:58:54;16.35;;;8.30;;
47778;SDS011;33538;48.432;11.350;2023-02-15T11:01:33;19.05;;;8.30;;
47778;SDS011;33538;48.432;11.350;2023-02-15T11:04:10;18.52;;;8.38;;
47778;SDS011;33538;48.432;11.350;2023-02-15T11:06:59;20.98;;;9.45;;
47778;SDS011;33538;48.432;11.350;2023-02-15T11:09:32;17.17;;;7.28;;
47778;SDS011;33538;48.432;11.350;2023-02-15T11:12:10;20.83;;;8.60;;
47778;SDS011;33538;48.432;11.350;2023-02-15T11:14:43;37.17;;;13.82;;
47778;SDS011;33538;48.432;11.350;2023-02-15T11:19:52;18.92;;;8.45;;
47778;SDS011;33538;48.432;11.350;2023-02-15T11:22:26;20.98;;;8.95;;
47778;SDS011;33538;48.432;11.350;2023-02-15T11:24:52;22.65;;;9.60;;
47778;SDS011;33538;48.432;11.350;2023-02-15T11:27:20;18.88;;;8.77;;
47778;SDS011;33538;48.432;11.350;2023-02-15T11:29:53;21.85;;;9.20;;
47778;SDS011;33538;48.432;11.350;2023-02-15T11:32:25;18.38;;;8.30;;
47778;SDS011;33538;48.432;11.350;2023-02-15T11:34:55;18.08;;;9.07;;
47778;SDS011;33538;48.432;11.350;2023-02-15T11:37:29;28.60;;;9.68;;
47778;SDS011;33538;48.432;11.350;2023-02-15T11:40:01;18.23;;;9.25;;
47778;SDS011;33538;48.432;11.350;2023-02-15T11:42:30;22.55;;;9.70;;
47778;SDS011;33538;48.432;11.350;2023-02-15T11:44:59;20.52;;;9.25;;
47778;SDS011;33538;48.432;11.350;2023-02-15T11:47:33;18.15;;;8.70;;
47778;SDS011;33538;48.432;11.350;2023-02-15T11:50:00;22.60;;;9.57;;
47778;SDS011;33538;48.432;11.350;2023-02-15T11:52:26;20.92;;;8.02;;
47778;SDS011;33538;48.432;11.350;2023-02-15T11:54:55;16.83;;;8.02;;
47778;SDS011;33538;48.432;11.350;2023-02-15T11:57:23;14.68;;;7.40;;
47778;SDS011;33538;48.432;11.350;2023-02-15T11:59:53;18.58;;;9.20;;
47778;SDS011;33538;48.432;11.350;2023-02-15T12:02:26;17.50;;;8.68;;
47778;SDS011;33538;48.432;11.350;2023-02-15T12:04:53;23.27;;;9.55;;
47778;SDS011;33538;48.432;11.350;2023-02-15T12:07:23;18.80;;;9.20;;
47778;SDS011;33538;48.432;11.350;2023-02-15T12:09:56;17.00;;;8.75;;
47778;SDS011;33538;48.432;11.350;2023-02-15T12:12:28;19.00;;;9.55;;
47778;SDS011;33538;48.432;11.350;2023-02-15T12:14:57;16.55;;;8.73;;
47778;SDS011;33538;48.432;11.350;2023-02-15T12:17:26;22.30;;;10.15;;
47778;SDS011;33538;48.432;11.350;2023-02-15T12:19:56;23.52;;;10.25;;
47778;SDS011;33538;48.432;11.350;2023-02-15T12:22:27;23.80;;;9.77;;
47778;SDS011;33538;48.432;11.350;2023-02-15T12:24:58;25.08;;;11.35;;
47778;SDS011;33538;48.432;11.350;2023-02-15T12:27:27;26.95;;;11.90;;
47778;SDS011;33538;48.432;11.350;2023-02-15T12:29:56;23.30;;;9.82;;
47778;SDS011;33538;48.432;11.350;2023-02-15T12:32:26;20.65;;;9.48;;
47778;SDS011;33538;48.432;11.350;2023-02-15T12:34:59;24.13;;;10.80;;
47778;SDS011;33538;48.432;11.350;2023-02-15T12:37:28;25.70;;;11.70;;
47778;SDS011;33538;48.432;11.350;2023-02-15T12:39:59;22.38;;;10.52;;
47778;SDS011;33538;48.432;11.350;2023-02-15T12:42:27;26.80;;;10.38;;
47778;SDS011;33538;48.432;11.350;2023-02-15T12:45:19;22.60;;;9.93;;
47778;SDS011;33538;48.432;11.350;2023-02-15T12:47:47;28.23;;;11.63;;
47778;SDS011;33538;48.432;11.350;2023-02-15T12:50:33;28.25;;;10.82;;
47778;SDS011;33538;48.432;11.350;2023-02-15T12:53:06;20.75;;;10.23;;
47778;SDS011;33538;48.432;11.350;2023-02-15T12:55:35;21.17;;;9.85;;
47778;SDS011;33538;48.432;11.350;2023-02-15T12:58:05;26.17;;;11.23;;
47778;SDS011;33538;48.432;11.350;2023-02-15T13:00:33;24.80;;;11.40;;
47778;SDS011;33538;48.432;11.350;2023-02-15T13:03:00;21.98;;;10.10;;
47778;SDS011;33538;48.432;11.350;2023-02-15T13:05:29;22.83;;;9.50;;
47778;SDS011;33538;48.432;11.350;2023-02-15T13:08:00;27.23;;;11.93;;
47778;SDS011;33538;48.432;11.350;2023-02-15T13:10:29;26.38;;;11.60;;
47778;SDS011;33538;48.432;11.350;2023-02-15T13:13:00;28.45;;;12.27;;
47778;SDS011;33538;48.432;11.350;2023-02-15T13:15:29;27.35;;;11.50;;
47778;SDS011;33538;48.432;11.350;2023-02-15T13:18:00;27.85;;;12.02;;
47778;SDS011;33538;48.432;11.350;2023-02-15T13:20:28;26.70;;;11.48;;
47778;SDS011;33538;48.432;11.350;2023-02-15T13:22:59;23.50;;;12.02;;
47778;SDS011;33538;48.432;11.350;2023-02-15T13:25:29;24.73;;;11.33;;
47778;SDS011;33538;48.432;11.350;2023-02-15T13:28:02;23.00;;;10.57;;
47778;SDS011;33538;48.432;11.350;2023-02-15T13:30:31;27.85;;;11.80;;
47778;SDS011;33538;48.432;11.350;2023-02-15T13:33:03;28.33;;;11.18;;
47778;SDS011;33538;48.432;11.350;2023-02-15T13:35:35;26.80;;;12.25;;
47778;SDS011;33538;48.432;11.350;2023-02-15T13:38:16;38.47;;;14.68;;
47778;SDS011;33538;48.432;11.350;2023-02-15T13:41:14;26.60;;;12.15;;
47778;SDS011;33538;48.432;11.350;2023-02-15T13:43:47;30.15;;;11.77;;
47778;SDS011;33538;48.432;11.350;2023-02-15T13:46:24;41.20;;;12.65;;
47778;SDS011;33538;48.432;11.350;2023-02-15T13:49:12;38.47;;;13.30;;
47778;SDS011;33538;48.432;11.350;2023-02-15T13:51:45;27.65;;;11.32;;
47778;SDS011;33538;48.432;11.350;2023-02-15T13:57:20;24.27;;;11.60;;
47778;SDS011;33538;48.432;11.350;2023-02-15T14:00:08;27.17;;;12.07;;
47778;SDS011;33538;48.432;11.350;2023-02-15T14:02:53;29.48;;;12.48;;
47778;SDS011;33538;48.432;11.350;2023-02-15T14:05:46;30.67;;;12.57;;
47778;SDS011;33538;48.432;11.350;2023-02-15T14:08:19;23.50;;;11.32;;
47778;SDS011;33538;48.432;11.350;2023-02-15T14:10:54;26.27;;;11.82;;
47778;SDS011;33538;48.432;11.350;2023-02-15T14:13:39;27.97;;;12.40;;
47778;SDS011;33538;48.432;11.350;2023-02-15T14:16:23;22.27;;;10.88;;
47778;SDS011;33538;48.432;11.350;2023-02-15T14:19:00;26.85;;;11.95;;
47778;SDS011;33538;48.432;11.350;2023-02-15T14:21:36;33.40;;;13.75;;
47778;SDS011;33538;48.432;11.350;2023-02-15T14:24:12;32.47;;;14.32;;
47778;SDS011;33538;48.432;11.350;2023-02-15T14:26:49;28.85;;;12.02;;
47778;SDS011;33538;48.432;11.350;2023-02-15T14:29:24;23.87;;;11.67;;
47778;SDS011;33538;48.432;11.350;2023-02-15T14:32:03;28.50;;;13.15;;
47778;SDS011;33538;48.432;11.350;2023-02-15T14:34:36;26.95;;;11.75;;
47778;SDS011;33538;48.432;11.350;2023-02-15T14:37:09;26.48;;;12.02;;
47778;SDS011;33538;48.432;11.350;2023-02-15T14:39:42;28.85;;;13.80;;
47778;SDS011;33538;48.432;11.350;2023-02-15T14:42:15;34.15;;;13.82;;
47778;SDS011;33538;48.432;11.350;2023-02-15T14:44:47;32.95;;;12.68;;
47778;SDS011;33538;48.432;11.350;2023-02-15T14:47:21;31.58;;;13.23;;
47778;SDS011;33538;48.432;11.350;2023-02-15T14:49:52;27.98;;;11.75;;
47778;SDS011;33538;48.432;11.350;2023-02-15T14:52:19;24.70;;;11.07;;